Time;durP1;ratioP1;P1;durP2;ratioP2;P2;SDS_P1;SDS_P2;PMS_P1;PMS_P2;Temp;Humidity;BMP_temperature;BMP_pressure;BME280_temperature;BME280_humidity;BME280_pressure;Samples;Min_cycle;Max_cycle;Signal;HPM_P1;HPM_P2
2024/04/03 00:00:37;;;;;;;1.98;0.98;;;;;;;21.25;41.50;100684.94;4973754;28;20050;-69
2024/04/03 00:03:03;;;;;;;1.75;0.70;;;;;;;21.20;41.51;100687.31;4960833;28;20042;-69
2024/04/03 00:05:29;;;;;;;1.75;0.95;;;;;;;21.16;41.51;100678.09;4967139;28;20045;-69
2024/04/03 00:07:54;;;;;;;1.77;1.00;;;;;;;21.21;41.39;100681.00;4965188;28;20043;-69
2024/04/03 00:10:20;;;;;;;2.40;1.15;;;;;;;21.23;41.41;100688.75;4971653;28;20383;-68
2024/04/03 00:12:46;;;;;;;5.65;0.98;;;;;;;21.16;41.47;100672.81;4965083;28;20043;-68
2024/04/03 00:15:13;;;;;;;2.67;0.95;;;;;;;21.15;41.42;100675.66;4962072;28;20384;-68
2024/04/03 00:17:38;;;;;;;3.03;1.33;;;;;;;21.15;41.73;100679.09;4974089;28;20042;-69
2024/04/03 00:20:04;;;;;;;1.60;0.95;;;;;;;21.12;41.75;100669.72;5042850;28;20038;-68
2024/04/03 00:22:30;;;;;;;2.45;1.00;;;;;;;21.23;41.26;100672.88;4960434;28;20042;-69
2024/04/03 00:24:57;;;;;;;2.20;1.08;;;;;;;21.12;41.84;100675.03;4953024;28;20498;-69
2024/04/03 00:27:22;;;;;;;2.22;1.02;;;;;;;21.16;41.54;100662.22;4963579;28;20192;-69
2024/04/03 00:29:48;;;;;;;2.10;1.00;;;;;;;21.09;41.75;100659.53;5030420;28;20045;-67
2024/04/03 00:32:14;;;;;;;2.88;0.90;;;;;;;21.11;41.48;100657.50;4968802;28;20053;-69
2024/04/03 00:34:40;;;;;;;2.63;0.80;;;;;;;21.09;41.73;100656.06;4956148;28;20034;-69
2024/04/03 00:37:06;;;;;;;2.38;1.10;;;;;;;21.10;41.51;100655.88;4972994;28;20026;-68
2024/04/03 00:39:33;;;;;;;2.75;0.90;;;;;;;21.05;41.73;100646.88;4969044;28;20050;-68
2024/04/03 00:41:58;;;;;;;1.20;0.90;;;;;;;21.13;41.49;100652.00;4964136;28;20441;-68
2024/04/03 00:44:24;;;;;;;2.65;1.20;;;;;;;21.10;41.61;100653.22;4967313;28;20046;-68
2024/04/03 00:46:50;;;;;;;1.77;0.82;;;;;;;21.07;41.57;100650.97;4963535;28;20050;-68
2024/04/03 00:49:18;;;;;;;2.20;1.00;;;;;;;21.03;41.59;100652.34;4961956;28;20038;-68
2024/04/03 00:51:48;;;;;;;2.28;1.10;;;;;;;21.09;41.48;100651.59;4963537;28;20054;-68
2024/04/03 00:54:15;;;;;;;2.22;1.00;;;;;;;21.03;41.55;100647.06;4946097;28;20094;-67
2024/04/03 00:56:41;;;;;;;3.25;1.10;;;;;;;21.15;41.48;100644.69;4959232;28;20073;-68
2024/04/03 00:59:07;;;;;;;1.40;0.90;;;;;;;21.03;41.56;100648.88;4978348;28;20045;-69
2024/04/03 01:01:32;;;;;;;3.33;1.33;;;;;;;21.03;41.63;100643.59;4963353;28;20051;-68
2024/04/03 01:03:58;;;;;;;2.20;1.10;;;;;;;21.08;41.58;100644.66;4973066;28;20053;-68
2024/04/03 01:06:23;;;;;;;2.53;0.90;;;;;;;21.10;41.38;100641.81;4979849;28;20081;-68
2024/04/03 01:08:49;;;;;;;2.63;0.90;;;;;;;21.13;41.48;100636.94;4969925;28;20051;-68
2024/04/03 01:11:16;;;;;;;2.03;0.90;;;;;;;21.06;41.65;100627.31;4964234;28;20074;-68
2024/04/03 01:13:42;;;;;;;2.90;1.17;;;;;;;21.00;41.70;100617.47;4963243;28;20068;-68
2024/04/03 01:16:08;;;;;;;2.10;1.00;;;;;;;21.04;41.51;100622.22;4964986;28;20410;-68
2024/04/03 01:18:34;;;;;;;3.20;1.13;;;;;;;21.00;41.58;100615.66;4985358;28;20057;-68
2024/04/03 01:20:59;;;;;;;1.83;0.95;;;;;;;21.07;41.51;100615.72;4967122;28;20042;-68
2024/04/03 01:23:25;;;;;;;2.63;1.00;;;;;;;21.03;41.54;100609.19;4963722;28;20053;-68
2024/04/03 01:25:52;;;;;;;3.67;1.08;;;;;;;20.97;41.57;100616.03;4969771;28;20545;-66
2024/04/03 01:28:20;;;;;;;1.77;0.90;;;;;;;20.98;41.55;100608.91;4969916;28;20063;-68
2024/04/03 01:30:46;;;;;;;1.85;1.00;;;;;;;21.04;41.36;100605.53;4964795;28;20085;-69
2024/04/03 01:33:11;;;;;;;3.03;1.00;;;;;;;21.04;41.47;100609.00;4967651;28;20542;-68
2024/04/03 01:35:37;;;;;;;2.70;1.10;;;;;;;21.00;41.44;100607.72;4979216;28;20042;-68
2024/04/03 01:38:03;;;;;;;3.35;1.27;;;;;;;21.00;41.42;100599.78;4967110;28;20047;-68
2024/04/03 01:40:28;;;;;;;2.47;1.02;;;;;;;20.99;41.51;100608.72;4970475;28;20111;-68
2024/04/03 01:42:53;;;;;;;2.42;1.10;;;;;;;20.95;41.80;100604.00;4966898;28;20046;-69
2024/04/03 01:45:19;;;;;;;2.78;0.90;;;;;;;20.97;41.72;100609.94;4971146;28;20054;-67
2024/04/03 01:47:45;;;;;;;1.75;0.80;;;;;;;20.99;41.66;100598.13;4964101;28;20042;-69
2024/04/03 01:50:13;;;;;;;3.30;1.13;;;;;;;20.95;41.59;100596.06;4962972;28;20038;-68
2024/04/03 01:52:39;;;;;;;2.63;0.90;;;;;;;20.93;41.61;100604.22;4966730;28;20051;-69
2024/04/03 01:55:05;;;;;;;2.55;0.95;;;;;;;20.90;41.75;100594.00;4972880;28;20076;-68
2024/04/03 01:57:30;;;;;;;1.70;1.00;;;;;;;20.91;41.76;100600.94;4976412;28;20038;-68
2024/04/03 01:59:56;;;;;;;1.83;0.90;;;;;;;20.99;41.47;100594.66;4965846;28;20049;-68
2024/04/03 02:02:22;;;;;;;2.75;1.10;;;;;;;20.94;41.59;100597.09;5050748;28;20055;-69
2024/04/03 02:04:47;;;;;;;2.80;1.00;;;;;;;20.90;41.76;100599.31;4971817;28;20039;-68
2024/04/03 02:07:13;;;;;;;1.67;1.02;;;;;;;20.85;41.96;100596.44;4967554;28;20058;-67
2024/04/03 02:09:38;;;;;;;2.05;1.13;;;;;;;20.89;41.83;100594.19;4963606;28;20090;-68
2024/04/03 02:12:05;;;;;;;2.70;0.90;;;;;;;20.89;41.86;100595.03;4967069;28;20049;-68
2024/04/03 02:14:31;;;;;;;1.65;0.85;;;;;;;20.91;41.67;100595.66;4967437;28;20707;-68
2024/04/03 02:16:56;;;;;;;2.63;1.00;;;;;;;20.92;41.55;100586.69;4970428;28;20042;-67
2024/04/03 02:19:22;;;;;;;2.33;1.00;;;;;;;20.86;41.88;100594.59;4967093;28;20047;-68
2024/04/03 02:21:47;;;;;;;3.08;1.13;;;;;;;20.88;41.76;100592.56;4965237;28;20038;-68
2024/04/03 02:24:13;;;;;;;2.33;1.38;;;;;;;20.91;41.44;100592.19;4962389;28;20035;-69
2024/04/03 02:26:39;;;;;;;2.03;0.88;;;;;;;20.85;41.74;100591.13;4953108;28;20043;-68
2024/04/03 02:29:04;;;;;;;2.35;0.95;;;;;;;20.93;41.65;100593.63;4965320;28;20050;-68
2024/04/03 02:31:30;;;;;;;3.58;1.02;;;;;;;20.77;41.81;100584.13;4968950;28;20042;-68
2024/04/03 02:33:56;;;;;;;2.97;1.08;;;;;;;20.87;41.84;100581.16;4966038;28;20814;-68
2024/04/03 02:36:21;;;;;;;2.25;0.98;;;;;;;20.82;41.72;100583.56;4971942;28;20046;-68
2024/04/03 02:38:48;;;;;;;2.83;1.10;;;;;;;20.88;41.78;100588.09;4968286;28;20597;-68
2024/04/03 02:41:14;;;;;;;2.97;1.00;;;;;;;20.79;41.89;100584.75;4969459;28;20055;-68
2024/04/03 02:43:40;;;;;;;1.83;0.95;;;;;;;20.88;41.67;100588.09;4963559;28;20459;-68
2024/04/03 02:46:05;;;;;;;3.55;1.30;;;;;;;20.88;41.85;100588.09;4969246;28;20057;-68
2024/04/03 02:48:31;;;;;;;2.00;0.80;;;;;;;20.89;41.54;100575.69;4966398;28;20046;-69
2024/04/03 02:51:04;;;;;;;2.40;0.95;;;;;;;20.83;41.63;100579.91;5048260;28;20042;-68
2024/04/03 02:53:33;;;;;;;2.38;1.02;;;;;;;20.80;41.83;100578.44;4963382;28;20047;-69
2024/04/03 02:56:03;;;;;;;2.13;1.15;;;;;;;20.79;41.77;100582.09;5045800;28;20058;-68
2024/04/03 02:58:29;;;;;;;2.55;1.08;;;;;;;20.76;42.01;100576.38;4966993;28;20049;-68
2024/04/03 03:00:59;;;;;;;2.33;1.10;;;;;;;20.89;41.69;100565.91;4973793;28;20042;-68
2024/04/03 03:03:26;;;;;;;3.08;1.00;;;;;;;20.75;41.87;100569.47;4962361;28;20072;-68
2024/04/03 03:05:53;;;;;;;1.75;0.95;;;;;;;20.84;41.71;100555.09;4963935;28;20049;-68
2024/04/03 03:08:19;;;;;;;3.65;1.08;;;;;;;20.78;41.67;100553.19;4944968;28;20049;-68
2024/04/03 03:10:44;;;;;;;4.28;1.05;;;;;;;20.82;41.66;100557.09;4969163;28;20038;-67
2024/04/03 03:13:10;;;;;;;1.95;1.10;;;;;;;20.80;41.57;100549.34;4967775;28;20050;-68
2024/04/03 03:15:35;;;;;;;2.10;1.00;;;;;;;20.82;41.45;100551.78;4964790;28;20047;-68
2024/04/03 03:18:01;;;;;;;2.25;1.00;;;;;;;20.80;41.79;100552.00;4960505;28;20036;-69
2024/04/03 03:20:26;;;;;;;1.67;1.08;;;;;;;20.78;41.60;100553.19;4965891;28;20042;-68
2024/04/03 03:22:53;;;;;;;2.97;1.05;;;;;;;20.84;41.74;100547.16;4966665;28;20103;-68
2024/04/03 03:25:18;;;;;;;2.40;1.10;;;;;;;20.72;41.95;100552.16;4961338;28;20583;-70
2024/04/03 03:27:44;;;;;;;1.98;1.05;;;;;;;20.82;41.71;100538.56;4973052;28;20046;-70
2024/04/03 03:30:09;;;;;;;3.40;1.27;;;;;;;20.80;41.67;100536.09;4964269;28;20053;-70
2024/04/03 03:32:35;;;;;;;3.28;1.00;;;;;;;20.75;41.64;100537.72;4965695;28;20047;-70
2024/04/03 03:35:00;;;;;;;1.77;1.08;;;;;;;20.74;41.86;100525.50;4972141;28;20753;-69
2024/04/03 03:37:26;;;;;;;3.58;1.00;;;;;;;20.65;42.00;100527.47;4969059;28;20470;-70
2024/04/03 03:39:51;;;;;;;1.58;1.08;;;;;;;20.72;41.72;100528.31;4973069;28;20726;-69
2024/04/03 03:42:18;;;;;;;2.40;1.20;;;;;;;20.67;41.76;100528.09;4959754;28;20042;-70
2024/04/03 03:44:43;;;;;;;1.40;0.90;;;;;;;20.73;41.86;100527.31;4964541;28;20043;-70
2024/04/03 03:47:09;;;;;;;2.80;0.98;;;;;;;20.70;41.64;100522.41;4971956;28;20030;-69
2024/04/03 03:52:36;;;;;;;2.95;1.23;;;;;;;20.64;41.94;100523.16;4958586;28;20042;-68
2024/04/03 03:55:02;;;;;;;3.38;1.20;;;;;;;20.62;42.02;100516.44;4960849;28;20142;-71
2024/04/03 03:57:31;;;;;;;3.97;1.20;;;;;;;20.68;41.82;100516.50;4946543;28;20572;-70
2024/04/03 03:59:57;;;;;;;2.38;1.30;;;;;;;20.72;41.82;100512.44;4963143;28;20127;-70
2024/04/03 04:02:23;;;;;;;4.20;1.20;;;;;;;20.61;41.82;100502.38;4962874;28;20209;-70
2024/04/03 04:04:52;;;;;;;2.00;1.05;;;;;;;20.69;41.80;100501.44;4966385;28;20043;-70
2024/04/03 04:07:22;;;;;;;2.75;0.95;;;;;;;20.56;42.07;100502.16;4970466;28;20046;-70
2024/04/03 04:09:51;;;;;;;3.90;1.40;;;;;;;20.62;41.95;100498.72;4966766;28;20047;-69
2024/04/03 04:12:20;;;;;;;3.08;1.10;;;;;;;20.65;41.70;100497.56;4964245;28;20057;-68
2024/04/03 04:14:52;;;;;;;5.18;1.23;;;;;;;20.64;41.85;100498.53;5046801;28;20038;-67
2024/04/03 04:17:19;;;;;;;1.90;1.05;;;;;;;20.63;41.95;100497.72;4967047;28;20184;-68
2024/04/03 04:19:45;;;;;;;1.83;1.00;;;;;;;20.65;41.69;100498.38;4969051;28;20035;-68
2024/04/03 04:22:11;;;;;;;1.73;0.90;;;;;;;20.64;41.75;100496.72;4960863;28;20042;-68
2024/04/03 04:24:38;;;;;;;2.90;1.08;;;;;;;20.64;41.69;100501.19;4971107;28;20054;-68
2024/04/03 04:27:10;;;;;;;2.85;1.20;;;;;;;20.61;41.89;100498.94;4968238;28;20050;-68
2024/04/03 04:29:36;;;;;;;2.33;1.10;;;;;;;20.62;41.91;100501.38;4965022;28;20680;-69
2024/04/03 04:32:05;;;;;;;2.72;0.80;;;;;;;20.66;41.70;100496.53;4964563;28;20038;-68
2024/04/03 04:34:31;;;;;;;4.00;0.93;;;;;;;20.63;41.73;100500.38;4965524;28;20099;-67
2024/04/03 04:36:56;;;;;;;2.03;1.00;;;;;;;20.68;41.60;100497.16;4970633;28;20051;-68
2024/04/03 04:39:22;;;;;;;2.50;1.05;;;;;;;20.70;41.64;100493.31;4976087;28;20043;-68
2024/04/03 04:41:51;;;;;;;1.42;0.90;;;;;;;20.64;41.93;100496.72;4972022;28;20035;-68
2024/04/03 04:44:17;;;;;;;;;;;;;;;20.56;42.00;100502.16;4978873;28;20625;-69
2024/04/03 04:46:50;;;;;;;2.50;1.10;;;;;;;20.60;41.75;100498.09;4960329;28;20061;-69
2024/04/03 04:49:17;;;;;;;2.92;1.15;;;;;;;20.63;41.94;100496.91;4967430;28;20039;-68
2024/04/03 04:51:43;;;;;;;2.38;0.90;;;;;;;20.62;41.88;100498.72;4962101;28;20043;-69
2024/04/03 04:54:09;;;;;;;2.70;1.08;;;;;;;20.60;41.71;100495.47;4964074;28;20051;-68
2024/04/03 04:56:35;;;;;;;2.33;1.02;;;;;;;20.57;41.97;100495.84;4972042;28;20038;-69
2024/04/03 04:59:00;;;;;;;2.22;0.90;;;;;;;20.57;41.89;100492.38;4966594;28;20050;-68
2024/04/03 05:01:26;;;;;;;2.03;1.13;;;;;;;20.66;41.77;100496.53;4953977;28;20043;-68
2024/04/03 05:03:51;;;;;;;3.40;1.42;;;;;;;20.57;41.74;100495.03;4969007;28;20050;-69
2024/04/03 05:06:17;;;;;;;2.67;1.10;;;;;;;20.57;42.00;100489.75;4967247;28;20042;-68
2024/04/03 05:08:43;;;;;;;2.63;1.20;;;;;;;20.48;42.12;100489.91;4963666;28;20043;-68
2024/04/03 05:11:09;;;;;;;3.35;1.10;;;;;;;20.61;41.77;100483.88;4968926;28;20065;-69
2024/04/03 05:13:35;;;;;;;2.20;1.10;;;;;;;20.64;41.72;100494.06;4967320;28;20356;-68
2024/04/03 05:16:05;;;;;;;3.60;1.30;;;;;;;20.62;41.86;100492.63;4976332;28;20057;-68
2024/04/03 05:18:31;;;;;;;2.20;1.20;;;;;;;20.59;41.87;100483.25;4970481;28;20047;-68
2024/04/03 05:20:56;;;;;;;2.95;1.40;;;;;;;20.64;41.74;100478.19;4969571;28;20039;-68
2024/04/03 05:23:22;;;;;;;2.63;1.20;;;;;;;20.63;41.93;100473.91;4971775;28;20051;-69
2024/04/03 05:26:01;;;;;;;2.65;0.95;;;;;;;20.62;41.78;100476.75;4965759;28;20039;-68
2024/04/03 05:28:28;;;;;;;4.13;1.60;;;;;;;20.54;42.17;100467.16;4971374;28;20051;-69
2024/04/03 05:30:54;;;;;;;3.13;1.20;;;;;;;20.58;41.98;100465.75;4958885;28;20047;-68
2024/04/03 05:33:20;;;;;;;2.15;1.02;;;;;;;20.63;41.78;100468.63;4968781;28;20061;-69
2024/04/03 05:35:59;;;;;;;2.10;1.05;;;;;;;20.54;42.07;100455.75;4967159;28;20451;-68
2024/04/03 05:38:25;;;;;;;3.08;1.30;;;;;;;20.63;41.78;100454.56;4980980;28;20626;-69
2024/04/03 05:40:55;;;;;;;3.70;1.30;;;;;;;20.59;41.88;100463.91;4964607;28;20050;-68
2024/04/03 05:43:21;;;;;;;2.20;1.27;;;;;;;20.56;42.05;100457.19;4978926;28;20042;-69
2024/04/03 05:45:47;;;;;;;1.42;0.90;;;;;;;20.58;42.03;100463.09;4966517;28;20047;-68
2024/04/03 05:48:14;;;;;;;2.85;1.33;;;;;;;20.48;42.24;100458.16;4967213;28;20054;-68
2024/04/03 05:50:40;;;;;;;2.72;1.15;;;;;;;20.61;41.75;100460.06;4970176;28;20046;-68
2024/04/03 05:53:06;;;;;;;5.85;1.80;;;;;;;20.63;41.84;100457.22;4966686;28;20042;-68
2024/04/03 05:55:31;;;;;;;2.20;1.30;;;;;;;20.51;42.16;100464.91;4966170;28;20312;-68
2024/04/03 05:57:57;;;;;;;2.13;1.13;;;;;;;20.55;42.06;100460.84;4963756;28;20046;-69
2024/04/03 06:00:23;;;;;;;3.67;1.50;;;;;;;20.59;42.03;100461.28;4963998;28;20421;-68
2024/04/03 06:02:48;;;;;;;1.60;1.00;;;;;;;20.50;42.09;100456.13;4977292;28;20047;-69
2024/04/03 06:05:14;;;;;;;2.60;1.10;;;;;;;20.54;42.14;100455.75;4959703;28;20170;-68
2024/04/03 06:07:40;;;;;;;2.00;0.95;;;;;;;20.57;41.81;100450.88;4967385;28;20710;-69
2024/04/03 06:10:07;;;;;;;2.45;1.15;;;;;;;20.56;41.88;100448.44;4964990;28;20035;-68
2024/04/03 06:12:32;;;;;;;2.13;1.27;;;;;;;20.56;42.04;100449.25;4969685;28;20047;-70
2024/04/03 06:14:58;;;;;;;3.78;2.00;;;;;;;20.55;42.15;100442.31;4962714;28;20042;-70
2024/04/03 06:17:24;;;;;;;2.83;1.02;;;;;;;20.55;42.05;100441.50;4971063;28;20042;-70
2024/04/03 06:19:50;;;;;;;2.05;1.10;;;;;;;20.56;41.93;100445.78;4968038;28;20664;-70
2024/04/03 06:22:15;;;;;;;1.58;0.93;;;;;;;20.52;42.43;100437.44;4974688;28;20044;-70
2024/04/03 06:24:42;;;;;;;2.30;1.10;;;;;;;20.52;42.06;100440.06;4968073;28;20066;-70
2024/04/03 06:27:08;;;;;;;2.45;1.30;;;;;;;20.62;41.76;100445.81;5002649;28;20117;-68
2024/04/03 06:29:33;;;;;;;3.47;1.30;;;;;;;20.62;41.95;100442.34;4972979;28;20039;-70
2024/04/03 06:32:01;;;;;;;2.22;1.40;;;;;;;20.58;42.04;100436.66;4969932;28;20043;-70
2024/04/03 06:34:26;;;;;;;2.67;1.38;;;;;;;20.60;41.72;100444.38;4960574;28;20752;-70
2024/04/03 06:36:52;;;;;;;3.13;1.10;;;;;;;20.58;41.95;100439.28;4968778;28;20050;-69
2024/04/03 06:39:17;;;;;;;1.67;1.17;;;;;;;20.55;42.22;100441.50;4967071;28;20039;-68
2024/04/03 06:41:43;;;;;;;2.45;1.30;;;;;;;20.56;42.02;100433.38;4970253;28;20043;-68
2024/04/03 06:44:08;;;;;;;1.70;1.00;;;;;;;20.59;41.74;100426.88;4963660;28;20058;-68
2024/04/03 06:46:34;;;;;;;2.08;1.17;;;;;;;20.71;41.91;100428.78;4962542;28;20035;-71
2024/04/03 06:49:00;;;;;;;3.28;1.40;;;;;;;20.62;42.45;100431.78;4962992;28;20485;-68
2024/04/03 06:51:25;;;;;;;2.85;1.48;;;;;;;20.92;41.84;100425.25;4971897;28;20116;-69
2024/04/03 06:53:51;;;;;;;2.65;1.23;;;;;;;21.25;41.23;100419.31;4961183;28;20069;-69
2024/04/03 06:56:17;;;;;;;3.20;1.25;;;;;;;21.45;40.62;100424.66;4962470;28;20674;-68
2024/04/03 06:58:43;;;;;;;1.63;1.23;;;;;;;21.41;40.91;100424.25;4964380;28;20054;-69
2024/04/03 07:01:13;;;;;;;2.70;1.10;;;;;;;21.41;40.74;100425.06;4961523;28;20051;-69
2024/04/03 07:03:38;;;;;;;;;;;;;;;21.35;40.90;100420.53;4966618;28;20050;-68
2024/04/03 07:06:05;;;;;;;1.67;1.00;;;;;;;21.23;41.21;100411.53;4961138;28;19922;-67
2024/04/03 07:08:32;;;;;;;4.45;1.08;;;;;;;21.13;41.26;100411.88;4970355;28;20050;-68
2024/04/03 07:10:58;;;;;;;1.95;0.98;;;;;;;21.01;41.71;100412.66;4958469;28;20051;-69
2024/04/03 07:13:24;;;;;;;2.10;1.20;;;;;;;20.99;41.61;100419.97;4961908;28;20412;-69
2024/04/03 07:15:50;;;;;;;1.40;0.90;;;;;;;20.88;41.78;100428.47;4943469;28;20661;-69
2024/04/03 07:18:17;;;;;;;2.88;1.30;;;;;;;20.90;41.97;100418.50;5041161;28;20049;-70
2024/04/03 07:20:56;;;;;;;2.28;1.25;;;;;;;20.86;42.03;100417.28;4966522;28;20039;-70
2024/04/03 07:23:28;;;;;;;2.13;1.10;;;;;;;20.82;42.20;100422.13;4964804;28;20550;-70
2024/04/03 07:25:55;;;;;;;2.00;0.98;;;;;;;20.85;42.03;100415.66;4958749;28;20066;-69
2024/04/03 07:28:21;;;;;;;2.92;1.20;;;;;;;20.83;42.06;100421.13;4966561;28;20066;-69
2024/04/03 07:30:47;;;;;;;3.92;1.27;;;;;;;20.83;42.11;100415.03;4972121;28;20064;-70
2024/04/03 07:33:13;;;;;;;1.52;1.05;;;;;;;20.82;42.25;100411.53;4959144;28;20676;-70
2024/04/03 07:35:38;;;;;;;1.33;0.90;;;;;;;20.88;41.99;100417.91;5049416;28;20408;-70
2024/04/03 07:38:05;;;;;;;2.60;1.33;;;;;;;20.83;42.20;100407.91;4964340;28;20035;-69
2024/04/03 07:40:31;;;;;;;3.17;1.38;;;;;;;20.83;41.89;100415.84;4965431;28;20041;-69
2024/04/03 07:42:57;;;;;;;1.90;1.00;;;;;;;20.74;42.18;100412.53;4939762;28;20220;-70
2024/04/03 07:45:22;;;;;;;1.88;0.93;;;;;;;20.81;42.02;100413.38;4964601;28;20483;-69
2024/04/03 07:47:48;;;;;;;2.70;1.48;;;;;;;20.77;42.04;100406.84;4969376;28;20129;-69
2024/04/03 07:50:15;;;;;;;4.00;1.10;;;;;;;20.82;42.09;100408.88;4962939;28;20050;-69
2024/04/03 07:52:41;;;;;;;1.83;1.05;;;;;;;20.79;42.03;100411.94;4948228;28;20161;-69
2024/04/03 07:55:08;;;;;;;2.08;1.27;;;;;;;20.80;42.06;100410.91;4968528;28;20757;-69
2024/04/03 07:57:36;;;;;;;2.67;1.30;;;;;;;20.86;42.03;100404.03;4962897;28;20560;-69
2024/04/03 08:00:05;;;;;;;2.78;1.17;;;;;;;20.81;42.07;100409.91;4960981;28;20040;-69
2024/04/03 08:02:40;;;;;;;2.30;1.75;;;;;;;20.85;41.87;100408.53;4961314;28;21268;-69
2024/04/03 08:05:07;;;;;;;1.83;1.17;;;;;;;20.83;41.97;100413.19;4961608;28;20047;-69
2024/04/03 08:07:32;;;;;;;3.15;1.17;;;;;;;20.82;42.18;100411.53;4962096;28;20149;-69
2024/04/03 08:10:02;;;;;;;2.70;1.67;;;;;;;20.80;41.98;100414.38;4962587;28;20057;-69
2024/04/03 08:12:29;;;;;;;1.92;1.00;;;;;;;20.78;42.08;100413.75;4970578;28;20845;-69
2024/04/03 08:14:59;;;;;;;2.67;0.88;;;;;;;20.79;42.13;100410.09;4965748;28;20045;-69
2024/04/03 08:17:25;;;;;;;2.05;1.10;;;;;;;20.84;41.97;100401.59;4977846;28;20088;-69
2024/04/03 08:19:52;;;;;;;2.85;1.33;;;;;;;20.85;41.87;100405.06;4955364;28;20393;-69
2024/04/03 08:22:19;;;;;;;1.90;1.23;;;;;;;20.83;42.09;100401.78;4965158;28;20108;-69
2024/04/03 08:24:45;;;;;;;1.95;1.10;;;;;;;20.81;41.81;100410.72;4966831;28;20046;-69
2024/04/03 08:27:10;;;;;;;2.65;1.13;;;;;;;20.84;41.93;100401.59;4946610;28;20057;-69
2024/04/03 08:29:39;;;;;;;2.50;1.13;;;;;;;20.86;41.81;100406.69;4964187;28;20081;-68
2024/04/03 08:32:05;;;;;;;2.35;1.10;;;;;;;20.93;41.97;100408.34;5046657;28;20536;-70
2024/04/03 08:34:31;;;;;;;2.13;1.05;;;;;;;20.92;41.79;100409.34;4959751;28;20058;-70
2024/04/03 08:36:57;;;;;;;2.20;1.17;;;;;;;20.97;41.78;100408.75;4940102;28;20094;-69
2024/04/03 08:39:22;;;;;;;2.60;1.05;;;;;;;20.93;41.79;100405.69;4946505;28;20084;-69
2024/04/03 08:41:53;;;;;;;1.55;0.98;;;;;;;21.00;41.67;100408.34;4964651;28;20050;-69
2024/04/03 08:44:20;;;;;;;3.05;0.98;;;;;;;20.95;41.81;100398.38;4963716;28;20791;-69
2024/04/03 08:46:48;;;;;;;1.42;1.13;;;;;;;20.98;41.59;100400.63;4962864;28;20054;-69
2024/04/03 08:49:17;;;;;;;1.90;1.00;;;;;;;21.05;41.66;100400.66;4963220;28;20103;-69
2024/04/03 08:52:05;;;;;;;1.40;0.82;;;;;;;21.01;42.02;100405.53;4963029;28;20057;-69
2024/04/03 08:54:31;;;;;;;1.33;1.02;;;;;;;21.02;41.70;100407.16;4968278;28;20087;-69
2024/04/03 08:57:07;;;;;;;2.33;1.02;;;;;;;21.06;41.80;100402.28;4964427;28;20146;-69
2024/04/03 08:59:40;;;;;;;2.10;1.13;;;;;;;21.02;41.85;100401.06;4970955;28;20068;-69
2024/04/03 09:02:06;;;;;;;2.30;0.93;;;;;;;21.05;41.72;100401.47;4964403;28;20034;-69
2024/04/03 09:04:33;;;;;;;1.58;1.05;;;;;;;20.99;41.89;100407.53;4967615;28;20041;-70
2024/04/03 09:06:59;;;;;;;1.42;0.90;;;;;;;21.04;41.62;100399.84;4972453;28;20035;-70
2024/04/03 09:09:27;;;;;;;1.65;1.08;;;;;;;21.12;41.55;100396.19;4963555;28;20607;-69
2024/04/03 09:12:05;;;;;;;1.40;0.82;;;;;;;21.07;41.63;100402.09;4960604;28;20046;-69
2024/04/03 09:14:31;;;;;;;2.05;1.20;;;;;;;21.14;41.48;100394.16;4956903;28;20422;-69
2024/04/03 09:17:03;;;;;;;1.65;0.93;;;;;;;21.08;41.87;100397.63;4964286;28;20129;-69
2024/04/03 09:19:30;;;;;;;1.35;0.90;;;;;;;21.09;41.78;100393.94;4960632;28;20058;-69
2024/04/03 09:21:58;;;;;;;1.67;1.00;;;;;;;21.12;41.46;100394.38;4941414;28;20445;-70
2024/04/03 09:24:24;;;;;;;1.30;0.80;;;;;;;21.08;41.79;100389.66;4970466;28;20456;-69
2024/04/03 09:26:51;;;;;;;1.45;1.00;;;;;;;21.11;41.88;100389.28;4965212;28;20101;-70
2024/04/03 09:29:17;;;;;;;1.27;0.80;;;;;;;21.13;41.72;100388.06;4964086;28;20708;-69
2024/04/03 09:31:46;;;;;;;1.90;0.90;;;;;;;21.08;41.64;100387.03;4972605;28;20047;-69
2024/04/03 09:34:13;;;;;;;1.83;0.95;;;;;;;21.07;41.62;100378.25;4979637;28;20036;-67
2024/04/03 09:36:40;;;;;;;1.60;0.95;;;;;;;21.06;41.77;100386.41;4968582;28;20042;-70
2024/04/03 09:39:09;;;;;;;1.38;1.00;;;;;;;21.03;41.78;100381.53;4965165;28;20439;-70
2024/04/03 09:41:35;;;;;;;2.08;0.88;;;;;;;21.05;41.92;100372.34;4966213;28;20050;-71
2024/04/03 09:44:08;;;;;;;1.38;0.85;;;;;;;21.07;41.79;100377.44;4961263;28;20053;-70
2024/04/03 09:46:58;;;;;;;1.90;1.00;;;;;;;21.09;41.81;100375.41;4970592;28;20104;-70
2024/04/03 09:49:27;;;;;;;3.20;0.88;;;;;;;20.99;41.85;100375.78;4963421;28;20054;-70
2024/04/03 09:51:56;;;;;;;1.23;0.80;;;;;;;21.05;41.61;100374.19;4947374;28;20047;-70
2024/04/03 09:54:23;;;;;;;1.15;0.90;;;;;;;21.07;41.76;100374.81;4973165;28;20184;-70
2024/04/03 09:56:49;;;;;;;1.60;0.90;;;;;;;21.11;41.85;100376.03;4960647;28;20062;-69
2024/04/03 09:59:16;;;;;;;1.58;1.02;;;;;;;21.01;41.93;100370.31;4966628;28;20617;-70
2024/04/03 10:01:42;;;;;;;1.15;0.88;;;;;;;21.04;42.04;100370.72;4960938;28;20050;-69
2024/04/03 10:04:09;;;;;;;1.70;1.00;;;;;;;21.03;42.22;100369.09;4965677;28;20054;-69
2024/04/03 10:06:38;;;;;;;1.20;0.90;;;;;;;21.05;42.10;100374.19;4948160;28;20066;-70
2024/04/03 10:09:13;;;;;;;;;;;;;;;20.99;42.08;100378.44;4970121;28;20057;-69
2024/04/03 10:11:45;;;;;;;1.15;0.80;;;;;;;21.02;42.01;100370.13;5046458;28;20445;-70
2024/04/03 10:14:26;;;;;;;1.55;1.00;;;;;;;20.97;42.05;100361.13;4967540;28;20050;-68
2024/04/03 10:16:53;;;;;;;1.85;0.90;;;;;;;20.95;42.03;100371.09;4983186;28;20076;-69
2024/04/03 10:19:20;;;;;;;1.05;0.63;;;;;;;21.05;42.02;100366.25;4961633;28;20042;-69
2024/04/03 10:21:46;;;;;;;2.00;1.17;;;;;;;20.99;42.09;100373.13;4959786;28;20064;-69
2024/04/03 10:24:12;;;;;;;1.08;0.70;;;;;;;20.99;42.06;100370.47;4964698;28;20050;-70
2024/04/03 10:26:38;;;;;;;1.80;0.93;;;;;;;20.95;42.20;100365.78;4951664;28;20661;-70
2024/04/03 10:29:04;;;;;;;1.80;0.85;;;;;;;20.93;42.42;100371.28;4977242;28;20151;-70
2024/04/03 10:31:29;;;;;;;1.25;0.80;;;;;;;20.96;42.23;100370.88;4965418;28;20118;-70
2024/04/03 10:33:55;;;;;;;1.10;0.70;;;;;;;20.96;42.17;100367.41;4967373;28;20077;-69
2024/04/03 10:36:22;;;;;;;1.40;0.70;;;;;;;20.99;42.02;100365.19;4963308;28;20046;-69
2024/04/03 10:38:48;;;;;;;1.17;0.80;;;;;;;20.97;41.96;100361.94;4969912;28;20053;-70
2024/04/03 10:41:14;;;;;;;1.27;0.80;;;;;;;20.98;41.93;100360.91;4967463;28;20093;-70
2024/04/03 10:43:39;;;;;;;1.42;0.75;;;;;;;21.00;41.98;100364.16;4960427;28;20066;-70
2024/04/03 10:46:14;;;;;;;1.52;0.90;;;;;;;20.99;41.95;100361.72;4965444;28;20061;-70
2024/04/03 10:48:43;;;;;;;1.35;0.80;;;;;;;21.11;41.96;100355.66;4967200;28;20051;-70
2024/04/03 10:51:09;;;;;;;1.10;0.80;;;;;;;21.09;41.54;100357.69;4966651;28;20476;-70
2024/04/03 10:53:35;;;;;;;1.05;0.77;;;;;;;21.15;41.78;100353.44;4968018;28;20038;-69
2024/04/03 10:56:00;;;;;;;1.00;0.80;;;;;;;21.16;41.56;100346.31;4962824;28;20057;-70
2024/04/03 10:58:27;;;;;;;1.30;0.90;;;;;;;21.18;41.89;100344.28;4957638;28;20051;-69
2024/04/03 11:00:54;;;;;;;1.42;0.80;;;;;;;21.21;41.50;100344.72;4965153;28;20038;-70
2024/04/03 11:03:22;;;;;;;0.90;0.75;;;;;;;21.21;41.78;100342.06;4962207;28;20053;-69
2024/04/03 11:05:49;;;;;;;1.25;0.70;;;;;;;21.15;41.77;100339.38;4965844;28;20049;-69
2024/04/03 11:08:16;;;;;;;1.23;0.80;;;;;;;21.21;41.71;100342.06;4963376;28;20035;-70
2024/04/03 11:10:41;;;;;;;1.33;0.82;;;;;;;21.15;41.73;100340.19;4977796;28;20161;-70
2024/04/03 11:13:13;;;;;;;1.40;0.80;;;;;;;21.11;41.86;100333.69;4962861;28;20045;-70
2024/04/03 11:15:39;;;;;;;1.17;1.00;;;;;;;21.10;41.71;100343.44;4963279;28;22047;-69
2024/04/03 11:18:05;;;;;;;1.90;0.95;;;;;;;21.13;42.10;100352.81;4949894;28;20057;-70
2024/04/03 11:20:34;;;;;;;1.33;0.77;;;;;;;21.13;41.83;100339.59;4961330;28;20026;-69
2024/04/03 11:22:59;;;;;;;0.85;0.60;;;;;;;21.10;42.01;100340.00;4965965;28;20106;-68
2024/04/03 11:25:30;;;;;;;1.40;0.80;;;;;;;21.09;42.15;100347.13;4944682;28;20030;-70
2024/04/03 11:28:03;;;;;;;1.52;0.73;;;;;;;21.19;41.87;100341.44;4962632;28;20058;-70